createdAt,value
2023-04-19T00:00:38.338Z,99005.23
2023-04-19T00:03:52.527Z,98999.88
2023-04-19T00:07:05.029Z,98992.78
2023-04-19T00:10:18.106Z,98994.06
2023-04-19T00:13:30.187Z,98993.76
2023-04-19T00:16:42.326Z,98984.52
2023-04-19T00:19:54.380Z,98979.63
2023-04-19T00:23:06.633Z,98985.34
2023-04-19T00:26:18.937Z,98979.76
2023-04-19T00:29:32.677Z,98977.80
2023-04-19T00:32:45.148Z,98975.13
2023-04-19T00:35:57.436Z,98972.74
2023-04-19T00:39:09.906Z,98965.46
2023-04-19T00:42:23.562Z,98967.16
2023-04-19T00:45:37.659Z,98957.78
2023-04-19T00:48:50.155Z,98960.45
2023-04-19T00:52:02.548Z,98957.91
2023-04-19T00:55:16.472Z,98955.39
2023-04-19T00:58:29.666Z,98956.66
2023-04-19T01:01:41.841Z,98952.34
2023-04-19T01:04:54.012Z,98942.83
2023-04-19T01:08:06.156Z,98943.94
2023-04-19T01:11:18.361Z,98935.27
2023-04-19T01:14:30.547Z,98923.13
2023-04-19T01:17:43.281Z,98913.61
2023-04-19T01:20:55.314Z,98907.59
2023-04-19T01:24:07.595Z,98916.53
2023-04-19T01:27:20.175Z,98908.71
2023-04-19T01:30:32.609Z,98914.45
2023-04-19T01:33:44.601Z,98913.75
2023-04-19T01:36:56.706Z,98907.89
2023-04-19T01:40:09.570Z,98906.92
2023-04-19T01:43:23.778Z,98908.59
2023-04-19T01:46:36.871Z,98901.61
2023-04-19T01:49:48.951Z,98901.73
2023-04-19T01:53:01.374Z,98888.59
2023-04-19T01:56:14.104Z,98889.86
2023-04-19T01:59:26.043Z,98895.73
2023-04-19T02:02:38.171Z,98888.61
2023-04-19T02:05:50.565Z,98886.26
2023-04-19T02:09:04.868Z,98879.67
2023-04-19T02:12:17.079Z,98873.78
2023-04-19T02:15:29.876Z,98867.23
2023-04-19T02:18:42.682Z,98867.80
2023-04-19T02:21:56.947Z,98857.59
2023-04-19T02:25:09.586Z,98860.11
2023-04-19T02:28:21.721Z,98854.09
2023-04-19T02:31:34.839Z,98852.28
2023-04-19T02:34:47.116Z,98852.55
2023-04-19T02:37:59.066Z,98845.58
2023-04-19T02:41:11.849Z,98845.58
2023-04-19T02:44:25.018Z,98848.35
2023-04-19T02:47:37.020Z,98845.16
2023-04-19T02:50:49.276Z,98842.80
2023-04-19T02:54:01.917Z,98842.91
2023-04-19T02:57:16.041Z,98840.55
2023-04-19T03:00:28.636Z,98839.70
2023-04-19T03:03:42.846Z,98838.05
2023-04-19T03:06:55.278Z,98834.70
2023-04-19T03:10:07.580Z,98829.53
2023-04-19T03:13:19.703Z,98826.18
2023-04-19T03:16:32.172Z,98829.12
2023-04-19T03:19:44.502Z,98828.42
2023-04-19T03:22:56.777Z,98829.24
2023-04-19T03:26:10.389Z,98831.91
2023-04-19T03:29:24.250Z,98829.95
2023-04-19T03:32:39.296Z,98823.54
2023-04-19T03:35:52.953Z,98821.12
2023-04-19T03:39:06.787Z,98815.11
2023-04-19T03:42:20.235Z,98810.80
2023-04-19T03:45:40.044Z,98803.94
2023-04-19T03:48:52.579Z,98797.23
2023-04-19T03:52:04.632Z,98795.54
2023-04-19T03:55:19.543Z,98794.42
2023-04-19T03:58:31.991Z,98795.52
2023-04-19T04:01:46.088Z,98803.33
2023-04-19T04:05:02.697Z,98793.00
2023-04-19T04:08:15.139Z,98793.26
2023-04-19T04:11:27.638Z,98794.52
2023-04-19T04:14:40.117Z,98794.11
2023-04-19T04:17:52.539Z,98798.30
2023-04-19T04:21:05.445Z,98790.05
2023-04-19T04:24:20.404Z,98800.25
2023-04-19T04:27:37.712Z,98801.08
2023-04-19T04:30:52.103Z,98797.19
2023-04-19T04:34:04.800Z,98798.88
2023-04-19T04:37:18.088Z,98800.41
2023-04-19T04:40:32.211Z,98796.92
2023-04-19T04:43:46.479Z,98794.14
2023-04-19T04:46:58.692Z,98788.28
2023-04-19T04:50:14.932Z,98791.23
2023-04-19T04:53:27.558Z,98781.72
2023-04-19T04:56:40.255Z,98783.13
2023-04-19T04:59:53.456Z,98792.77
2023-04-19T05:03:07.142Z,98778.11
2023-04-19T05:06:21.683Z,98773.65
2023-04-19T05:09:33.911Z,98775.45
2023-04-19T05:12:47.112Z,98762.89
2023-04-19T05:16:00.253Z,98776.56
2023-04-19T05:19:13.190Z,98779.22
2023-04-19T05:22:27.793Z,98771.55
2023-04-19T05:25:40.584Z,98775.45
2023-04-19T05:28:53.374Z,98763.00
2023-04-19T05:32:08.109Z,98780.20
2023-04-19T05:35:22.150Z,98772.52
2023-04-19T05:38:34.538Z,98767.35
2023-04-19T05:41:47.486Z,98774.61
2023-04-19T05:44:59.699Z,98773.50
2023-04-19T05:48:14.136Z,98773.91
2023-04-19T05:51:28.834Z,98772.91
2023-04-19T05:54:44.221Z,98773.21
2023-04-19T05:57:57.148Z,98773.50
2023-04-19T06:01:10.378Z,98769.45
2023-04-19T06:04:23.061Z,98775.72
2023-04-19T06:07:40.735Z,98772.36
2023-04-19T06:10:55.768Z,98776.95
2023-04-19T06:14:05.811Z,98768.72
2023-04-19T06:17:20.595Z,98771.80
2023-04-19T06:20:32.965Z,98770.11
2023-04-19T06:23:45.313Z,98778.77
2023-04-19T06:26:57.424Z,98778.36
2023-04-19T06:30:11.591Z,98782.67
2023-04-19T06:33:23.778Z,98777.11
2023-04-19T06:36:37.236Z,98778.77
2023-04-19T06:39:49.592Z,98775.70
2023-04-19T06:43:02.373Z,98782.13
2023-04-19T06:46:17.205Z,98781.72
2023-04-19T06:49:29.292Z,98790.52
2023-04-19T06:52:41.419Z,98781.46
2023-04-19T06:55:54.030Z,98786.47
2023-04-19T06:59:06.322Z,98789.13
2023-04-19T07:02:18.667Z,98786.91
2023-04-19T07:05:31.664Z,98788.28
2023-04-19T07:11:58.321Z,98781.02
2023-04-19T07:15:12.200Z,98784.52
2023-04-19T07:18:24.317Z,98779.91
2023-04-19T07:21:36.414Z,98781.46
2023-04-19T07:24:48.367Z,98779.51
2023-04-19T07:28:01.814Z,98778.52
2023-04-19T07:31:16.533Z,98778.25
2023-04-19T07:34:28.561Z,98777.88
2023-04-19T07:37:40.844Z,98780.08
2023-04-19T07:40:53.025Z,98774.92
2023-04-19T07:44:07.887Z,98774.92
2023-04-19T07:47:20.145Z,98776.47
2023-04-19T07:50:32.785Z,98783.03
2023-04-19T07:53:46.895Z,98773.47
2023-04-19T07:56:59.343Z,98788.43
2023-04-19T08:00:15.395Z,98786.32
2023-04-19T08:03:27.694Z,98792.17
2023-04-19T08:06:40.717Z,98798.72
2023-04-19T08:09:52.919Z,98798.43
2023-04-19T08:13:06.320Z,98793.81
2023-04-19T08:17:01.469Z,98798.30
2023-04-19T08:19:33.080Z,98790.35
2023-04-19T08:22:45.877Z,98783.52
2023-04-19T08:25:58.156Z,98793.58
2023-04-19T08:29:10.256Z,98786.63
2023-04-19T08:32:22.720Z,98787.72
2023-04-19T08:35:35.391Z,98786.33
2023-04-19T08:38:54.793Z,98791.78
2023-04-19T08:42:12.527Z,98793.59
2023-04-19T08:45:29.386Z,98798.48
2023-04-19T08:48:43.195Z,98804.34
2023-04-19T08:51:57.233Z,98807.80
2023-04-19T08:55:13.115Z,98803.19
2023-04-19T08:58:33.934Z,98802.23
2023-04-19T09:01:40.543Z,98806.14
2023-04-19T09:04:54.068Z,98802.48
2023-04-19T09:08:31.262Z,98809.17
2023-04-19T09:11:45.642Z,98800.80
2023-04-19T09:15:01.856Z,98804.70
2023-04-19T09:18:14.515Z,98813.22
2023-04-19T09:21:38.834Z,98810.31
2023-04-19T09:28:16.818Z,98811.02
2023-04-19T09:31:47.849Z,98815.45
2023-04-19T09:34:48.287Z,98814.75
2023-04-19T09:38:09.777Z,98818.91
2023-04-19T09:41:22.524Z,98818.70
2023-04-19T09:45:02.120Z,98817.15
2023-04-19T09:47:50.247Z,98821.38
2023-04-19T09:51:08.870Z,98819.72
2023-04-19T09:54:21.291Z,98820.82
2023-04-19T09:57:34.154Z,98823.16
2023-04-19T10:00:51.336Z,98827.75
2023-04-19T10:04:14.801Z,98825.23
2023-04-19T10:07:30.242Z,98822.38
2023-04-19T10:10:41.807Z,98823.08
2023-04-19T10:13:48.420Z,98821.10
2023-04-19T10:17:02.564Z,98818.31
2023-04-19T10:20:23.462Z,98814.42
2023-04-19T10:23:39.044Z,98823.83
2023-04-19T10:27:16.409Z,98822.42
2023-04-19T10:30:31.376Z,98815.20
2023-04-19T10:33:46.521Z,98821.00
2023-04-19T10:36:58.862Z,98815.45
2023-04-19T10:40:13.804Z,98820.16
2023-04-19T10:43:27.101Z,98815.66
2023-04-19T10:46:46.434Z,98817.89
2023-04-19T10:49:58.744Z,98820.44
2023-04-19T10:53:53.772Z,98819.45
2023-04-19T10:57:08.772Z,98822.73
2023-04-19T11:00:31.720Z,98816.44
2023-04-19T11:04:02.772Z,98816.55
2023-04-19T11:07:15.720Z,98817.78
2023-04-19T11:10:37.732Z,98815.48
2023-04-19T11:13:51.355Z,98808.07
2023-04-19T11:17:03.572Z,98806.44
2023-04-19T11:20:18.719Z,98803.53
2023-04-19T11:23:30.971Z,98806.91
2023-04-19T11:26:43.359Z,98804.96
2023-04-19T11:29:56.056Z,98799.42
2023-04-19T11:33:08.462Z,98805.04
2023-04-19T11:36:20.996Z,98795.28
2023-04-19T11:39:34.238Z,98799.48
2023-04-19T11:42:46.640Z,98800.14
2023-04-19T11:45:59.229Z,98798.34
2023-04-19T11:49:11.648Z,98806.73
2023-04-19T11:52:30.472Z,98805.59
2023-04-19T11:55:43.287Z,98803.94
2023-04-19T11:58:55.547Z,98809.80
2023-04-19T12:02:17.298Z,98810.91
2023-04-19T12:05:32.084Z,98814.41
2023-04-19T12:08:51.357Z,98812.05
2023-04-19T12:12:03.811Z,98812.45
2023-04-19T12:15:17.825Z,98816.22
2023-04-19T12:18:30.414Z,98820.97
2023-04-19T12:21:42.795Z,98826.27
2023-04-19T12:24:57.804Z,98820.70
2023-04-19T12:28:11.224Z,98818.31
2023-04-19T12:31:23.715Z,98818.05
2023-04-19T12:34:36.616Z,98813.16
2023-04-19T12:37:48.779Z,98808.45
2023-04-19T12:41:01.231Z,98807.58
2023-04-19T12:44:13.585Z,98812.06
2023-04-19T12:47:25.767Z,98811.08
2023-04-19T12:50:38.292Z,98814.58
2023-04-19T12:53:56.566Z,98805.09
2023-04-19T12:57:08.761Z,98814.02
2023-04-19T13:00:22.997Z,98808.16
2023-04-19T13:03:36.943Z,98812.62
2023-04-19T13:06:50.299Z,98817.81
2023-04-19T13:10:02.506Z,98818.52
2023-04-19T13:13:14.579Z,98814.17
2023-04-19T13:16:27.138Z,98814.45
2023-04-19T13:19:39.730Z,98809.27
2023-04-19T13:22:51.774Z,98810.36
2023-04-19T13:26:04.043Z,98809.83
2023-04-19T13:29:16.296Z,98812.89
2023-04-19T13:32:28.719Z,98812.89
2023-04-19T13:35:40.922Z,98805.94
2023-04-19T13:38:53.884Z,98809.25
2023-04-19T13:42:06.595Z,98813.19
2023-04-19T13:45:20.143Z,98810.81
2023-04-19T13:48:33.176Z,98804.36
2023-04-19T13:51:50.235Z,98798.61
2023-04-19T13:54:59.425Z,98804.46
2023-04-19T13:58:11.854Z,98805.55
2023-04-19T14:01:24.257Z,98806.94
2023-04-19T14:04:36.989Z,98799.99
2023-04-19T14:07:49.273Z,98809.08
2023-04-19T14:11:01.818Z,98808.97
2023-04-19T14:14:14.336Z,98799.20
2023-04-19T14:17:26.745Z,98795.01
2023-04-19T14:20:39.137Z,98798.91
2023-04-19T14:23:51.544Z,98800.04
2023-04-19T14:27:11.115Z,98794.14
2023-04-19T14:30:19.548Z,98794.92
2023-04-19T14:33:32.129Z,98800.05
2023-04-19T14:36:44.664Z,98800.54
2023-04-19T14:39:57.071Z,98805.55
2023-04-19T14:43:09.192Z,98799.96
2023-04-19T14:46:21.284Z,98805.66
2023-04-19T14:49:33.921Z,98798.45
2023-04-19T14:52:46.410Z,98802.66
2023-04-19T14:55:58.614Z,98812.63
2023-04-19T14:59:11.542Z,98804.62
2023-04-19T15:02:25.345Z,98813.91
2023-04-19T15:05:40.657Z,98820.34
2023-04-19T15:08:53.525Z,98814.60
2023-04-19T15:12:06.014Z,98817.72
2023-04-19T15:15:19.365Z,98818.44
2023-04-19T15:18:32.270Z,98816.33
2023-04-19T15:21:44.535Z,98821.79
2023-04-19T15:24:58.099Z,98822.64
2023-04-19T15:28:10.723Z,98824.90
2023-04-19T15:31:23.030Z,98819.58
2023-04-19T15:34:35.437Z,98828.81
2023-04-19T15:37:47.848Z,98828.23
2023-04-19T15:41:01.284Z,98834.27
2023-04-19T15:44:13.690Z,98830.80
2023-04-19T15:47:26.033Z,98836.92
2023-04-19T15:50:41.792Z,98840.57
2023-04-19T15:53:54.518Z,98846.99
2023-04-19T15:57:06.630Z,98845.33
2023-04-19T16:00:21.755Z,98850.21
2023-04-19T16:03:34.475Z,98853.41
2023-04-19T16:06:47.162Z,98858.47
2023-04-19T16:10:00.842Z,98850.76
2023-04-19T16:13:13.612Z,98849.50
2023-04-19T16:16:27.111Z,98853.00
2023-04-19T16:19:39.948Z,98859.98
2023-04-19T16:22:52.530Z,98860.55
2023-04-19T16:26:04.778Z,98859.98
2023-04-19T16:29:17.010Z,98868.95
2023-04-19T16:32:29.541Z,98863.78
2023-04-19T16:35:42.181Z,98865.44
2023-04-19T16:38:54.412Z,98865.45
2023-04-19T16:42:06.635Z,98869.91
2023-04-19T16:45:19.139Z,98862.09
2023-04-19T16:48:32.725Z,98872.97
2023-04-19T16:51:46.368Z,98872.56
2023-04-19T16:54:58.512Z,98881.08
2023-04-19T16:58:10.828Z,98872.71
2023-04-19T17:01:25.742Z,98882.33
2023-04-19T17:04:38.220Z,98877.42
2023-04-19T17:07:51.339Z,98883.25
2023-04-19T17:11:03.892Z,98889.73
2023-04-19T17:14:16.285Z,98894.75
2023-04-19T17:17:28.435Z,98894.90
2023-04-19T17:20:40.892Z,98897.30
2023-04-19T17:23:54.550Z,98891.70
2023-04-19T17:27:06.931Z,98902.31
2023-04-19T17:30:21.005Z,98899.50
2023-04-19T17:33:33.504Z,98909.86
2023-04-19T17:36:45.840Z,98906.86
2023-04-19T17:39:58.232Z,98901.65
2023-04-19T17:43:10.727Z,98917.88
2023-04-19T17:46:22.993Z,98922.08
2023-04-19T17:49:35.347Z,98924.02
2023-04-19T17:52:47.653Z,98925.27
2023-04-19T17:55:59.845Z,98941.44
2023-04-19T17:59:12.696Z,98943.53
2023-04-19T18:02:25.080Z,98941.89
2023-04-19T18:05:37.815Z,98941.36
2023-04-19T18:08:49.865Z,98941.47
2023-04-19T18:12:03.126Z,98947.62
2023-04-19T18:15:17.643Z,98951.52
2023-04-19T18:18:29.931Z,98959.05
2023-04-19T18:21:42.028Z,98956.65
2023-04-19T18:24:54.243Z,98959.30
2023-04-19T18:28:06.900Z,98963.91
2023-04-19T18:31:19.275Z,98972.98
2023-04-19T18:34:31.469Z,98968.50
2023-04-19T18:37:43.929Z,98973.09
2023-04-19T18:40:56.640Z,98971.16
2023-04-19T18:47:24.084Z,98981.23
2023-04-19T18:50:37.724Z,98982.30
2023-04-19T18:53:50.128Z,98982.05
2023-04-19T19:00:23.404Z,98990.53
2023-04-19T19:06:49.926Z,98982.30
2023-04-19T19:10:10.675Z,98984.23
2023-04-19T19:13:17.609Z,98980.06
2023-04-19T19:16:31.134Z,98994.98
2023-04-19T19:19:43.822Z,98985.89
2023-04-19T19:22:55.931Z,98997.07
2023-04-19T19:26:08.242Z,98996.17
2023-04-19T19:29:24.955Z,98995.03
2023-04-19T19:32:41.040Z,98991.34
2023-04-19T19:35:56.438Z,98994.66
2023-04-19T19:39:11.959Z,98996.08
2023-04-19T19:42:25.898Z,98996.79
2023-04-19T19:45:41.203Z,99013.07
2023-04-19T19:48:54.599Z,99005.26
2023-04-19T19:52:07.830Z,99008.63
2023-04-19T19:55:20.204Z,99008.34
2023-04-19T19:58:47.632Z,99005.83
2023-04-19T20:01:46.855Z,99005.50
2023-04-19T20:04:59.246Z,99007.20
2023-04-19T20:08:18.522Z,99003.31
2023-04-19T20:11:31.711Z,99004.98
2023-04-19T20:14:46.315Z,99005.97
2023-04-19T20:17:59.207Z,99006.92
2023-04-19T20:21:12.048Z,99006.63
2023-04-19T20:24:24.735Z,99006.73
2023-04-19T20:27:37.289Z,99003.84
2023-04-19T20:30:49.477Z,99001.33
2023-04-19T20:34:02.133Z,99001.70
2023-04-19T20:37:14.504Z,99000.98
2023-04-19T20:40:27.126Z,99005.20
2023-04-19T20:43:39.533Z,99008.66
2023-04-19T20:46:52.454Z,99004.59
2023-04-19T20:50:04.687Z,99005.11
2023-04-19T20:53:16.889Z,99009.45
2023-04-19T20:56:29.082Z,99009.66
2023-04-19T20:59:41.492Z,99012.64
2023-04-19T21:02:54.107Z,99006.92
2023-04-19T21:06:06.509Z,99013.92
2023-04-19T21:09:19.259Z,99007.20
2023-04-19T21:12:31.597Z,99007.58
2023-04-19T21:15:44.317Z,99005.26
2023-04-19T21:18:56.569Z,99010.05
2023-04-19T21:22:08.856Z,99005.31
2023-04-19T21:25:21.202Z,99009.77
2023-04-19T21:28:33.410Z,99003.31
2023-04-19T21:31:45.754Z,99001.63
2023-04-19T21:34:58.230Z,99001.56
2023-04-19T21:38:10.846Z,99008.56
2023-04-19T21:41:23.167Z,98998.26
2023-04-19T21:44:35.566Z,99004.98
2023-04-19T21:47:47.798Z,99006.07
2023-04-19T21:50:59.911Z,99001.70
2023-04-19T21:54:17.851Z,99013.02
2023-04-19T21:57:27.287Z,99013.02
2023-04-19T22:00:39.888Z,99013.97
2023-04-19T22:03:52.490Z,99011.08
2023-04-19T22:07:05.508Z,99016.10
2023-04-19T22:10:18.570Z,99011.78
2023-04-19T22:13:33.096Z,99008.86
2023-04-19T22:16:45.835Z,99017.39
2023-04-19T22:19:59.349Z,99017.52
2023-04-19T22:23:11.620Z,99018.75
2023-04-19T22:26:26.274Z,99010.22
2023-04-19T22:29:39.859Z,99014.16
2023-04-19T22:32:52.244Z,99013.20
2023-04-19T22:36:04.585Z,99011.13
2023-04-19T22:39:17.610Z,99010.99
2023-04-19T22:42:30.056Z,99011.08
2023-04-19T22:45:44.675Z,99009.69
2023-04-19T22:48:58.132Z,99008.98
2023-04-19T22:52:11.562Z,99011.83
2023-04-19T22:55:23.874Z,99003.50
2023-04-19T22:58:36.362Z,99005.91
2023-04-19T23:01:48.526Z,99006.63
2023-04-19T23:05:00.935Z,99002.14
2023-04-19T23:08:14.242Z,99002.66
2023-04-19T23:11:27.063Z,99008.41
2023-04-19T23:14:39.884Z,99013.36
2023-04-19T23:17:52.774Z,99015.43
2023-04-19T23:21:05.202Z,99018.93
2023-04-19T23:24:17.848Z,99017.36
2023-04-19T23:27:30.336Z,99018.08
2023-04-19T23:30:42.655Z,99011.11
2023-04-19T23:33:56.292Z,99014.72
2023-04-19T23:37:09.018Z,99004.19
2023-04-19T23:40:21.724Z,99001.03
2023-04-19T23:43:33.983Z,98994.50
2023-04-19T23:46:46.330Z,99001.37
2023-04-19T23:49:58.446Z,98991.99
2023-04-19T23:53:10.815Z,98990.91
2023-04-19T23:56:25.207Z,98988.25
2023-04-19T23:59:37.475Z,98985.41
